createdAt,value
2019-03-24T00:00:59.735Z,99.90
2019-03-24T00:03:29.463Z,99.90
2019-03-24T00:05:59.103Z,99.90
2019-03-24T00:08:28.772Z,99.90
2019-03-24T00:10:58.317Z,99.90
2019-03-24T00:13:27.788Z,99.90
2019-03-24T00:15:57.286Z,99.90
2019-03-24T00:18:27.016Z,99.90
2019-03-24T00:20:56.722Z,99.90
2019-03-24T00:23:26.126Z,99.90
2019-03-24T00:25:55.987Z,99.90
2019-03-24T00:28:25.455Z,99.90
2019-03-24T00:30:54.979Z,99.90
2019-03-24T00:33:24.570Z,99.90
2019-03-24T00:35:54.366Z,99.90
2019-03-24T00:38:23.867Z,99.90
2019-03-24T00:40:53.260Z,99.90
2019-03-24T00:43:23.023Z,99.90
2019-03-24T00:45:52.517Z,99.90
2019-03-24T00:48:21.911Z,99.90
2019-03-24T00:50:51.726Z,99.90
2019-03-24T00:53:21.501Z,99.90
2019-03-24T00:55:50.982Z,99.90
2019-03-24T00:58:20.443Z,99.90
2019-03-24T01:00:51.518Z,99.90
2019-03-24T01:03:21.125Z,99.90
2019-03-24T01:05:50.609Z,99.90
2019-03-24T01:08:20.207Z,99.90
2019-03-24T01:10:49.933Z,99.90
2019-03-24T01:13:19.793Z,99.90
2019-03-24T01:15:49.621Z,99.90
2019-03-24T01:18:19.182Z,99.90
2019-03-24T01:20:48.707Z,99.90
2019-03-24T01:23:18.175Z,99.90
2019-03-24T01:25:47.923Z,99.90
2019-03-24T01:28:17.433Z,99.90
2019-03-24T01:30:46.968Z,99.90
2019-03-24T01:33:16.400Z,99.90
2019-03-24T01:35:45.848Z,99.90
2019-03-24T01:38:15.503Z,99.90
2019-03-24T01:40:45.429Z,99.90
2019-03-24T01:43:15.160Z,99.90
2019-03-24T01:45:45.180Z,99.90
2019-03-24T01:48:14.830Z,99.90
2019-03-24T01:50:44.563Z,99.90
2019-03-24T01:53:14.398Z,99.90
2019-03-24T01:55:44.447Z,99.90
2019-03-24T01:58:14.773Z,99.90
2019-03-24T02:00:44.402Z,99.90
2019-03-24T02:03:14.086Z,99.90
2019-03-24T02:05:43.809Z,99.90
2019-03-24T02:08:13.815Z,99.90
2019-03-24T02:10:43.461Z,99.90
2019-03-24T02:13:13.154Z,99.90
2019-03-24T02:15:42.954Z,99.90
2019-03-24T02:18:12.959Z,99.90
2019-03-24T02:20:42.754Z,99.90
2019-03-24T02:23:12.477Z,99.90
2019-03-24T02:25:42.154Z,99.90
2019-03-24T02:28:12.623Z,99.90
2019-03-24T02:30:43.297Z,99.90
2019-03-24T02:33:12.969Z,99.90
2019-03-24T02:35:42.886Z,99.90
2019-03-24T02:38:12.887Z,99.90
2019-03-24T02:40:43.070Z,99.90
2019-03-24T02:43:13.588Z,99.90
2019-03-24T02:45:43.261Z,99.90
2019-03-24T02:48:13.152Z,99.90
2019-03-24T02:50:42.876Z,99.90
2019-03-24T02:53:12.521Z,99.90
2019-03-24T02:55:42.307Z,99.90
2019-03-24T02:58:12.290Z,99.90
2019-03-24T03:00:42.024Z,99.90
2019-03-24T03:03:11.680Z,99.90
2019-03-24T03:05:41.388Z,99.90
2019-03-24T03:08:11.173Z,99.90
2019-03-24T03:10:41.003Z,99.90
2019-03-24T03:13:10.721Z,99.90
2019-03-24T03:15:40.339Z,99.90
2019-03-24T03:18:10.076Z,99.90
2019-03-24T03:20:40.052Z,99.90
2019-03-24T03:23:09.756Z,99.90
2019-03-24T03:25:39.814Z,99.90
2019-03-24T03:28:09.742Z,99.90
2019-03-24T03:30:39.444Z,99.90
2019-03-24T03:33:09.657Z,99.90
2019-03-24T03:35:39.636Z,99.90
2019-03-24T03:38:09.690Z,99.90
2019-03-24T03:40:39.752Z,99.90
2019-03-24T03:43:09.796Z,99.90
2019-03-24T03:45:39.629Z,99.90
2019-03-24T03:48:09.719Z,99.90
2019-03-24T03:50:39.696Z,99.90
2019-03-24T03:53:09.368Z,99.90
2019-03-24T03:55:39.704Z,99.90
2019-03-24T03:58:09.420Z,99.90
2019-03-24T04:00:39.508Z,99.90
2019-03-24T04:03:09.296Z,99.90
2019-03-24T04:05:39.292Z,99.90
2019-03-24T04:08:09.336Z,99.90
2019-03-24T04:10:39.292Z,99.90
2019-03-24T04:13:09.654Z,99.90
2019-03-24T04:15:40.331Z,99.90
2019-03-24T04:18:10.242Z,99.90
2019-03-24T04:20:39.940Z,99.90
2019-03-24T04:23:09.587Z,99.90
2019-03-24T04:25:39.301Z,99.90
2019-03-24T04:28:08.968Z,99.90
2019-03-24T04:30:39.268Z,99.90
2019-03-24T04:33:08.913Z,99.90
2019-03-24T04:35:39.087Z,99.90
2019-03-24T04:38:09.010Z,99.90
2019-03-24T04:40:38.748Z,99.90
2019-03-24T04:43:08.927Z,99.90
2019-03-24T04:45:39.192Z,99.90
2019-03-24T04:48:08.827Z,99.90
2019-03-24T04:50:38.758Z,99.90
2019-03-24T04:53:08.454Z,99.90
2019-03-24T04:55:38.107Z,99.90
2019-03-24T04:58:07.735Z,99.90
2019-03-24T05:00:39.048Z,99.90
2019-03-24T05:03:08.694Z,99.90
2019-03-24T05:05:39.270Z,99.90
2019-03-24T05:08:11.007Z,99.90
2019-03-24T05:10:40.703Z,99.90
2019-03-24T05:13:10.679Z,99.90
2019-03-24T05:15:40.330Z,99.90
2019-03-24T05:18:10.190Z,99.90
2019-03-24T05:20:39.986Z,99.90
2019-03-24T05:23:09.970Z,99.90
2019-03-24T05:25:39.970Z,99.90
2019-03-24T05:28:10.011Z,99.90
2019-03-24T05:30:39.722Z,99.90
2019-03-24T05:33:09.694Z,99.90
2019-03-24T05:35:39.719Z,99.90
2019-03-24T05:38:09.763Z,99.90
2019-03-24T05:40:39.887Z,99.90
2019-03-24T05:43:09.544Z,99.90
2019-03-24T05:45:39.419Z,99.90
2019-03-24T05:48:09.228Z,99.90
2019-03-24T05:50:39.379Z,99.90
2019-03-24T05:53:09.270Z,99.90
2019-03-24T05:55:39.168Z,99.90
2019-03-24T05:58:09.338Z,99.90
2019-03-24T06:00:39.045Z,99.90
2019-03-24T06:03:08.684Z,99.90
2019-03-24T06:05:38.846Z,99.90
2019-03-24T06:08:09.067Z,99.90
2019-03-24T06:10:38.455Z,99.90
2019-03-24T06:13:08.194Z,99.90
2019-03-24T06:15:38.134Z,99.90
2019-03-24T06:18:08.241Z,99.90
2019-03-24T06:20:38.203Z,99.90
2019-03-24T06:23:08.181Z,99.90
2019-03-24T06:25:38.088Z,99.90
2019-03-24T06:28:08.279Z,99.90
2019-03-24T06:30:37.734Z,99.90
2019-03-24T06:33:07.383Z,99.90
2019-03-24T06:35:37.356Z,99.90
2019-03-24T06:38:07.118Z,99.90
2019-03-24T06:40:37.032Z,99.90
2019-03-24T06:43:07.119Z,99.90
2019-03-24T06:45:37.370Z,99.90
2019-03-24T06:48:07.125Z,99.90
2019-03-24T06:50:37.117Z,99.90
2019-03-24T06:53:06.735Z,99.90
2019-03-24T06:55:36.542Z,99.90
2019-03-24T06:58:06.342Z,99.90
2019-03-24T07:00:35.802Z,99.90
2019-03-24T07:03:05.388Z,99.90
2019-03-24T07:05:35.107Z,99.90
2019-03-24T07:08:04.963Z,99.90
2019-03-24T07:10:34.373Z,99.90
2019-03-24T07:13:03.771Z,99.90
2019-03-24T07:15:33.943Z,99.90
2019-03-24T07:18:08.411Z,99.90
2019-03-24T07:20:34.850Z,99.90
2019-03-24T07:23:05.009Z,99.90
2019-03-24T07:25:35.147Z,99.90
2019-03-24T07:28:05.196Z,99.90
2019-03-24T07:30:34.759Z,99.90
2019-03-24T07:33:04.447Z,99.90
2019-03-24T07:35:33.935Z,99.90
2019-03-24T07:38:03.474Z,99.90
2019-03-24T07:40:33.184Z,99.90
2019-03-24T07:43:02.990Z,99.90
2019-03-24T07:45:32.510Z,99.90
2019-03-24T07:48:02.786Z,99.90
2019-03-24T07:50:32.577Z,99.90
2019-03-24T07:53:02.672Z,99.90
2019-03-24T07:55:32.130Z,99.90
2019-03-24T07:58:02.069Z,99.90
2019-03-24T08:00:38.582Z,99.90
2019-03-24T08:03:08.186Z,99.90
2019-03-24T08:05:37.738Z,99.90
2019-03-24T08:08:07.468Z,99.90
2019-03-24T08:10:37.369Z,99.90
2019-03-24T08:13:06.910Z,99.90
2019-03-24T08:15:36.604Z,99.90
2019-03-24T08:18:06.398Z,99.90
2019-03-24T08:20:36.165Z,99.90
2019-03-24T08:23:06.046Z,99.90
2019-03-24T08:25:35.837Z,99.90
2019-03-24T08:28:05.618Z,99.90
2019-03-24T08:30:37.166Z,99.90
2019-03-24T08:33:06.726Z,99.90
2019-03-24T08:35:36.192Z,99.90
2019-03-24T08:38:06.259Z,99.90
2019-03-24T08:40:36.502Z,99.90
2019-03-24T08:43:06.311Z,99.90
2019-03-24T08:45:36.301Z,99.90
2019-03-24T08:48:05.964Z,99.90
2019-03-24T08:50:35.422Z,99.90
2019-03-24T08:53:04.967Z,99.90
2019-03-24T08:55:35.167Z,99.90
2019-03-24T08:58:04.780Z,99.90
2019-03-24T09:00:34.624Z,99.90
2019-03-24T09:03:04.175Z,99.90
2019-03-24T09:05:33.827Z,99.90
2019-03-24T09:08:03.947Z,99.90
2019-03-24T09:10:33.737Z,99.90
2019-03-24T09:13:03.124Z,99.90
2019-03-24T09:15:32.606Z,99.90
2019-03-24T09:18:02.310Z,99.90
2019-03-24T09:20:41.200Z,99.90
2019-03-24T09:23:03.854Z,99.90
2019-03-24T09:25:33.912Z,99.90
2019-03-24T09:28:03.497Z,99.90
2019-03-24T09:30:35.251Z,99.90
2019-03-24T09:33:05.204Z,99.90
2019-03-24T09:35:34.653Z,99.90
2019-03-24T09:38:04.604Z,99.90
2019-03-24T09:40:35.119Z,99.90
2019-03-24T09:43:06.465Z,99.90
2019-03-24T09:45:36.555Z,99.90
2019-03-24T09:48:06.655Z,99.90
2019-03-24T09:50:36.735Z,99.90
2019-03-24T09:53:06.616Z,99.90
2019-03-24T09:55:36.345Z,99.90
2019-03-24T09:58:06.338Z,99.90
2019-03-24T10:00:36.306Z,99.90
2019-03-24T10:03:06.090Z,99.90
2019-03-24T10:05:35.817Z,99.90
2019-03-24T10:08:05.627Z,99.90
2019-03-24T10:10:36.163Z,99.90
2019-03-24T10:13:06.103Z,99.90
2019-03-24T10:15:35.494Z,99.90
2019-03-24T10:18:05.305Z,99.90
2019-03-24T10:20:34.958Z,99.90
2019-03-24T10:23:04.930Z,99.90
2019-03-24T10:25:34.727Z,99.90
2019-03-24T10:28:04.257Z,99.90
2019-03-24T10:30:33.984Z,99.90
2019-03-24T10:33:03.817Z,99.90
2019-03-24T10:35:33.826Z,99.90
2019-03-24T10:38:03.634Z,99.90
2019-03-24T10:40:34.023Z,99.90
2019-03-24T10:43:04.360Z,99.90
2019-03-24T10:45:34.347Z,99.90
2019-03-24T10:48:04.859Z,99.90
2019-03-24T10:50:34.642Z,99.90
2019-03-24T10:53:04.816Z,99.90
2019-03-24T10:55:34.793Z,99.90
2019-03-24T10:58:04.295Z,98.20
2019-03-24T11:00:41.602Z,95.60
2019-03-24T11:03:11.401Z,94.80
2019-03-24T11:05:41.478Z,95.50
2019-03-24T11:08:11.639Z,94.30
2019-03-24T11:10:41.170Z,91.00
2019-03-24T11:13:11.339Z,92.30
2019-03-24T11:15:41.025Z,95.00
2019-03-24T11:18:10.619Z,90.20
2019-03-24T11:20:40.348Z,94.50
2019-03-24T11:23:10.107Z,88.90
2019-03-24T11:25:40.006Z,87.10
2019-03-24T11:28:10.046Z,80.20
2019-03-24T11:30:40.277Z,82.20
2019-03-24T11:33:10.046Z,88.50
2019-03-24T11:35:40.030Z,81.10
2019-03-24T11:38:10.198Z,85.00
2019-03-24T11:40:40.004Z,82.70
2019-03-24T11:43:09.752Z,86.70
2019-03-24T11:45:39.318Z,76.40
2019-03-24T11:48:09.654Z,78.80
2019-03-24T11:50:39.968Z,79.80
2019-03-24T11:53:09.647Z,75.80
2019-03-24T11:55:39.429Z,74.40
2019-03-24T11:58:09.089Z,74.40
2019-03-24T12:00:40.261Z,73.70
2019-03-24T12:03:10.998Z,72.90
2019-03-24T12:05:40.838Z,72.40
2019-03-24T12:08:10.946Z,70.20
2019-03-24T12:10:40.667Z,73.90
2019-03-24T12:13:10.424Z,71.70
2019-03-24T12:15:40.240Z,66.70
2019-03-24T12:18:10.548Z,65.80
2019-03-24T12:20:40.379Z,67.50
2019-03-24T12:23:10.299Z,63.70
2019-03-24T12:25:40.022Z,65.40
2019-03-24T12:28:10.250Z,68.20
2019-03-24T12:30:39.775Z,74.70
2019-03-24T12:33:09.970Z,76.80
2019-03-24T12:35:39.946Z,80.00
2019-03-24T12:38:09.943Z,76.90
2019-03-24T12:40:39.777Z,76.30
2019-03-24T12:43:18.980Z,79.20
2019-03-24T12:45:40.834Z,77.90
2019-03-24T12:48:11.178Z,74.30
2019-03-24T12:50:40.990Z,78.60
2019-03-24T12:53:10.650Z,79.30
2019-03-24T12:55:40.132Z,73.00
2019-03-24T12:58:09.822Z,73.70
2019-03-24T13:00:40.576Z,74.00
2019-03-24T13:03:10.694Z,77.60
2019-03-24T13:05:40.319Z,81.40
2019-03-24T13:08:14.471Z,75.20
2019-03-24T13:10:44.642Z,75.60
2019-03-24T13:13:14.655Z,76.00
2019-03-24T13:15:45.047Z,79.10
2019-03-24T13:18:14.607Z,82.20
2019-03-24T13:20:44.754Z,81.20
2019-03-24T13:23:15.068Z,84.70
2019-03-24T13:25:44.728Z,88.50
2019-03-24T13:28:14.742Z,89.30
2019-03-24T13:30:45.331Z,91.50
2019-03-24T13:33:15.268Z,94.40
2019-03-24T13:35:45.055Z,96.70
2019-03-24T13:38:15.059Z,97.80
2019-03-24T13:40:45.326Z,98.80
2019-03-24T13:43:15.035Z,99.10
2019-03-24T13:45:45.383Z,99.90
2019-03-24T13:48:15.103Z,99.90
2019-03-24T13:50:44.752Z,99.90
2019-03-24T13:53:14.767Z,99.90
2019-03-24T13:55:44.642Z,99.50
2019-03-24T13:58:14.800Z,99.90
2019-03-24T14:00:44.195Z,99.90
2019-03-24T14:03:13.879Z,99.90
2019-03-24T14:05:43.802Z,99.90
2019-03-24T14:08:13.918Z,99.90
2019-03-24T14:10:43.667Z,99.90
2019-03-24T14:13:14.050Z,99.90
2019-03-24T14:15:43.718Z,99.90
2019-03-24T14:18:13.631Z,99.90
2019-03-24T14:20:44.087Z,99.90
2019-03-24T14:23:14.248Z,99.90
2019-03-24T14:25:44.356Z,99.90
2019-03-24T14:28:14.123Z,99.90
2019-03-24T14:30:45.675Z,99.90
2019-03-24T14:33:16.244Z,99.90
2019-03-24T14:35:45.850Z,99.90
2019-03-24T14:38:15.649Z,99.90
2019-03-24T14:40:45.713Z,99.90
2019-03-24T14:43:15.592Z,99.90
2019-03-24T14:45:45.650Z,99.90
2019-03-24T14:48:15.399Z,99.90
2019-03-24T14:50:54.053Z,99.90
2019-03-24T14:53:16.583Z,99.90
2019-03-24T14:55:46.045Z,99.90
2019-03-24T14:58:16.142Z,99.90
2019-03-24T15:00:45.950Z,99.90
2019-03-24T15:03:15.782Z,99.90
2019-03-24T15:05:45.835Z,99.90
2019-03-24T15:08:15.466Z,99.90
2019-03-24T15:10:44.862Z,99.90
2019-03-24T15:13:14.323Z,99.90
2019-03-24T15:15:44.069Z,99.90
2019-03-24T15:18:13.626Z,99.90
2019-03-24T15:20:43.492Z,99.90
2019-03-24T15:23:12.954Z,99.90
2019-03-24T15:25:42.675Z,99.90
2019-03-24T15:28:12.313Z,99.90
2019-03-24T15:30:42.078Z,99.90
2019-03-24T15:33:11.495Z,99.90
2019-03-24T15:35:41.042Z,99.90
2019-03-24T15:38:10.425Z,99.90
2019-03-24T15:40:39.858Z,99.90
2019-03-24T15:43:09.571Z,99.90
2019-03-24T15:45:39.301Z,99.90
2019-03-24T15:48:08.882Z,99.90
2019-03-24T15:50:39.238Z,99.90
2019-03-24T15:53:08.715Z,99.90
2019-03-24T15:55:38.203Z,99.90
2019-03-24T15:58:07.591Z,99.90
2019-03-24T16:00:51.036Z,99.90
2019-03-24T16:03:20.995Z,99.90
2019-03-24T16:05:50.604Z,99.90
2019-03-24T16:08:20.028Z,99.90
2019-03-24T16:10:49.954Z,99.90
2019-03-24T16:13:19.782Z,99.90
2019-03-24T16:15:49.738Z,99.90
2019-03-24T16:18:19.506Z,99.90
2019-03-24T16:20:48.986Z,99.90
2019-03-24T16:23:19.195Z,99.90
2019-03-24T16:25:48.926Z,99.90
2019-03-24T16:28:19.112Z,99.90
2019-03-24T16:30:49.391Z,99.90
2019-03-24T16:33:19.236Z,99.90
2019-03-24T16:35:49.013Z,99.90
2019-03-24T16:38:19.022Z,99.90
2019-03-24T16:40:48.415Z,99.90
2019-03-24T16:43:18.440Z,99.90
2019-03-24T16:45:48.278Z,99.90
2019-03-24T16:48:18.055Z,99.90
2019-03-24T16:50:47.690Z,99.90
2019-03-24T16:53:17.120Z,99.90
2019-03-24T16:55:47.190Z,99.90
2019-03-24T16:58:16.859Z,99.90
2019-03-24T17:00:46.621Z,99.90
2019-03-24T17:03:16.328Z,99.90
2019-03-24T17:05:46.087Z,99.90
2019-03-24T17:08:15.801Z,99.90
2019-03-24T17:10:45.302Z,99.90
2019-03-24T17:13:14.688Z,99.90
2019-03-24T17:15:44.501Z,99.90
2019-03-24T17:18:14.591Z,99.90
2019-03-24T17:20:44.302Z,99.90
2019-03-24T17:23:13.763Z,99.90
2019-03-24T17:25:43.476Z,99.90
2019-03-24T17:28:13.451Z,99.90
2019-03-24T17:30:43.350Z,99.90
2019-03-24T17:33:13.739Z,99.90
2019-03-24T17:35:43.458Z,99.90
2019-03-24T17:38:13.203Z,99.90
2019-03-24T17:40:43.098Z,99.90
2019-03-24T17:43:12.602Z,99.90
2019-03-24T17:45:42.678Z,99.90
2019-03-24T17:48:12.490Z,99.90
2019-03-24T17:50:41.918Z,99.90
2019-03-24T17:53:11.617Z,99.90
2019-03-24T17:55:41.101Z,99.90
2019-03-24T17:58:11.222Z,99.90
2019-03-24T18:00:43.513Z,99.90
2019-03-24T18:03:13.460Z,99.90
2019-03-24T18:05:42.950Z,99.90
2019-03-24T18:08:12.494Z,99.90
2019-03-24T18:10:48.101Z,99.90
2019-03-24T18:13:18.189Z,99.90
2019-03-24T18:15:48.323Z,99.90
2019-03-24T18:18:18.057Z,99.90
2019-03-24T18:20:48.905Z,99.90
2019-03-24T18:23:18.613Z,99.90
2019-03-24T18:25:48.136Z,99.90
2019-03-24T18:28:17.879Z,99.90
2019-03-24T18:30:47.345Z,99.90
2019-03-24T18:33:20.991Z,99.90
2019-03-24T18:35:50.490Z,99.90
2019-03-24T18:38:20.178Z,99.90
2019-03-24T18:40:49.945Z,99.90
2019-03-24T18:43:20.287Z,99.90
2019-03-24T18:45:49.678Z,99.90
2019-03-24T18:48:19.091Z,99.90
2019-03-24T18:50:48.548Z,99.90
2019-03-24T18:53:18.962Z,99.90
2019-03-24T18:55:48.878Z,99.90
2019-03-24T18:58:18.513Z,99.90
2019-03-24T19:00:48.308Z,99.90
2019-03-24T19:03:18.018Z,99.90
2019-03-24T19:05:48.035Z,99.90
2019-03-24T19:08:17.791Z,99.90
2019-03-24T19:10:47.504Z,99.90
2019-03-24T19:13:17.178Z,99.90
2019-03-24T19:15:46.817Z,99.90
2019-03-24T19:18:16.563Z,99.90
2019-03-24T19:20:46.261Z,99.90
2019-03-24T19:23:15.702Z,99.90
2019-03-24T19:25:45.994Z,99.90
2019-03-24T19:28:15.960Z,99.90
2019-03-24T19:30:45.684Z,99.90
2019-03-24T19:33:15.465Z,99.90
2019-03-24T19:35:44.918Z,99.90
2019-03-24T19:38:14.978Z,99.90
2019-03-24T19:40:44.433Z,99.90
2019-03-24T19:43:14.177Z,99.90
2019-03-24T19:45:43.549Z,99.90
2019-03-24T19:48:13.001Z,99.90
2019-03-24T19:50:42.377Z,99.90
2019-03-24T19:53:12.771Z,99.90
2019-03-24T19:55:42.316Z,99.90
2019-03-24T19:58:12.130Z,99.90
2019-03-24T20:00:42.033Z,99.90
2019-03-24T20:03:11.760Z,99.90
2019-03-24T20:05:41.435Z,99.90
2019-03-24T20:08:11.118Z,99.90
2019-03-24T20:10:40.486Z,99.90
2019-03-24T20:13:10.738Z,99.90
2019-03-24T20:15:40.465Z,99.90
2019-03-24T20:18:10.078Z,99.90
2019-03-24T20:20:39.422Z,99.90
2019-03-24T20:23:09.362Z,99.90
2019-03-24T20:25:38.793Z,99.90
2019-03-24T20:28:08.253Z,99.90
2019-03-24T20:30:37.961Z,99.90
2019-03-24T20:33:07.481Z,99.90
2019-03-24T20:35:36.850Z,99.90
2019-03-24T20:38:06.332Z,99.90
2019-03-24T20:40:35.689Z,99.90
2019-03-24T20:43:05.481Z,99.90
2019-03-24T20:45:34.909Z,99.90
2019-03-24T20:48:04.658Z,99.90
2019-03-24T20:50:34.102Z,99.90
2019-03-24T20:53:13.317Z,99.90
2019-03-24T20:55:35.001Z,99.90
2019-03-24T20:58:04.604Z,99.90
2019-03-24T21:00:37.473Z,99.90
2019-03-24T21:03:09.350Z,99.90
2019-03-24T21:05:39.275Z,99.90
2019-03-24T21:08:09.058Z,99.90
2019-03-24T21:10:39.598Z,99.90
2019-03-24T21:13:09.691Z,99.90
2019-03-24T21:15:39.489Z,99.90
2019-03-24T21:18:08.987Z,99.90
2019-03-24T21:20:38.654Z,99.90
2019-03-24T21:23:08.746Z,99.90
2019-03-24T21:25:38.545Z,99.90
2019-03-24T21:28:08.731Z,99.90
2019-03-24T21:30:42.216Z,99.90
2019-03-24T21:33:12.558Z,99.90
2019-03-24T21:35:42.026Z,99.90
2019-03-24T21:38:11.931Z,99.90
2019-03-24T21:40:41.679Z,99.90
2019-03-24T21:43:12.089Z,99.90
2019-03-24T21:45:42.072Z,99.90
2019-03-24T21:48:11.466Z,99.90
2019-03-24T21:50:41.466Z,99.90
2019-03-24T21:53:10.921Z,99.90
2019-03-24T21:55:40.837Z,99.90
2019-03-24T21:58:10.405Z,99.90
2019-03-24T22:00:39.856Z,99.90
2019-03-24T22:03:09.425Z,99.90
2019-03-24T22:05:38.877Z,99.90
2019-03-24T22:08:08.738Z,99.90
2019-03-24T22:10:38.531Z,99.90
2019-03-24T22:13:08.151Z,99.90
2019-03-24T22:15:37.625Z,99.90
2019-03-24T22:18:07.812Z,99.90
2019-03-24T22:20:48.446Z,99.90
2019-03-24T22:23:09.053Z,99.90
2019-03-24T22:25:39.038Z,99.90
2019-03-24T22:28:08.772Z,99.90
2019-03-24T22:30:38.293Z,99.90
2019-03-24T22:33:08.134Z,99.90
2019-03-24T22:35:37.902Z,99.90
2019-03-24T22:38:08.000Z,99.90
2019-03-24T22:40:37.833Z,99.90
2019-03-24T22:43:07.710Z,99.90
2019-03-24T22:45:37.922Z,99.90
2019-03-24T22:48:07.403Z,99.90
2019-03-24T22:50:37.416Z,99.90
2019-03-24T22:53:06.835Z,99.90
2019-03-24T22:55:36.690Z,99.90
2019-03-24T22:58:06.482Z,99.90
2019-03-24T23:00:51.715Z,99.90
2019-03-24T23:03:21.693Z,99.90
2019-03-24T23:05:51.217Z,99.90
2019-03-24T23:08:20.981Z,99.90
2019-03-24T23:10:50.637Z,99.90
2019-03-24T23:13:20.364Z,99.90
2019-03-24T23:15:50.161Z,99.90
2019-03-24T23:18:19.898Z,99.90
2019-03-24T23:20:49.350Z,99.90
2019-03-24T23:23:19.142Z,99.90
2019-03-24T23:25:49.357Z,99.90
2019-03-24T23:28:18.814Z,99.90
2019-03-24T23:30:48.509Z,99.90
2019-03-24T23:33:18.060Z,99.90
2019-03-24T23:35:47.775Z,99.90
2019-03-24T23:38:17.413Z,99.90
2019-03-24T23:40:47.123Z,99.90
2019-03-24T23:43:16.753Z,99.90
2019-03-24T23:45:46.844Z,99.90
2019-03-24T23:48:16.719Z,99.90
2019-03-24T23:50:46.538Z,99.90
2019-03-24T23:53:16.194Z,99.90
2019-03-24T23:55:46.033Z,99.90
2019-03-24T23:58:16.038Z,99.90
